createdAt,value
2019-05-13T00:01:06.717Z,101626.56
2019-05-13T00:03:29.495Z,101630.27
2019-05-13T00:05:55.984Z,101632.84
2019-05-13T00:08:24.829Z,101627.77
2019-05-13T00:10:50.235Z,101625.96
2019-05-13T00:13:16.462Z,101623.68
2019-05-13T00:15:44.244Z,101625.49
2019-05-13T00:18:10.721Z,101630.70
2019-05-13T00:20:38.911Z,101634.38
2019-05-13T00:23:05.192Z,101641.70
2019-05-13T00:25:33.567Z,101638.04
2019-05-13T00:27:59.442Z,101635.62
2019-05-13T00:30:26.013Z,101640.77
2019-05-13T00:32:54.429Z,101645.70
2019-05-13T00:35:20.221Z,101647.88
2019-05-13T00:37:46.452Z,101644.36
2019-05-13T00:40:14.368Z,101645.67
2019-05-13T00:42:41.116Z,101646.40
2019-05-13T00:45:07.460Z,101648.95
2019-05-13T00:47:34.197Z,101651.44
2019-05-13T00:50:03.525Z,101657.91
2019-05-13T00:52:29.204Z,101658.94
2019-05-13T00:54:55.342Z,101654.59
2019-05-13T00:57:23.702Z,101652.28
2019-05-13T00:59:49.604Z,101664.86
2019-05-13T01:02:15.776Z,101665.05
2019-05-13T01:04:44.045Z,101662.22
2019-05-13T01:07:22.876Z,101664.67
2019-05-13T01:09:38.634Z,101668.52
2019-05-13T01:12:04.805Z,101667.95
2019-05-13T01:14:31.013Z,101667.95
2019-05-13T01:16:57.184Z,101667.02
2019-05-13T01:19:23.796Z,101673.80
2019-05-13T01:21:50.084Z,101671.28
2019-05-13T01:24:16.440Z,101675.39
2019-05-13T01:26:43.853Z,101678.83
2019-05-13T01:29:10.592Z,101679.63
2019-05-13T01:31:36.683Z,101673.71
2019-05-13T01:34:04.046Z,101673.96
2019-05-13T01:36:30.370Z,101674.86
2019-05-13T01:38:56.559Z,101678.06
2019-05-13T01:41:24.021Z,101683.50
2019-05-13T01:43:50.427Z,101688.34
2019-05-13T01:46:16.582Z,101687.87
2019-05-13T01:48:43.753Z,101692.02
2019-05-13T01:51:10.493Z,101701.33
2019-05-13T01:53:36.637Z,101700.12
2019-05-13T01:56:03.861Z,101704.79
2019-05-13T01:58:30.276Z,101708.89
2019-05-13T02:00:56.492Z,101708.75
2019-05-13T02:03:24.578Z,101705.13
2019-05-13T02:05:51.074Z,101709.33
2019-05-13T02:08:17.235Z,101707.39
2019-05-13T02:10:54.564Z,101704.88
2019-05-13T02:13:24.568Z,101707.58
2019-05-13T02:15:51.201Z,101710.78
2019-05-13T02:18:17.341Z,101712.73
2019-05-13T02:20:44.252Z,101717.94
2019-05-13T02:23:10.764Z,101720.64
2019-05-13T02:25:37.969Z,101716.91
2019-05-13T02:28:09.567Z,101720.77
2019-05-13T02:30:34.949Z,101721.13
2019-05-13T02:33:02.828Z,101720.86
2019-05-13T02:35:28.498Z,101721.60
2019-05-13T02:38:12.525Z,101720.63
2019-05-13T02:40:22.868Z,101719.80
2019-05-13T02:42:52.159Z,101725.75
2019-05-13T02:45:17.269Z,101730.67
2019-05-13T02:47:44.247Z,101728.33
2019-05-13T02:50:12.884Z,101725.52
2019-05-13T02:52:39.272Z,101725.30
2019-05-13T02:55:06.116Z,101726.82
2019-05-13T02:57:32.945Z,101731.70
2019-05-13T02:59:59.258Z,101727.99
2019-05-13T03:02:25.483Z,101729.61
2019-05-13T03:04:52.297Z,101728.18
2019-05-13T03:07:18.935Z,101728.52
2019-05-13T03:09:45.069Z,101734.08
2019-05-13T03:12:12.992Z,101736.67
2019-05-13T03:14:44.762Z,101731.17
2019-05-13T03:17:12.812Z,101731.44
2019-05-13T03:19:37.611Z,101733.56
2019-05-13T03:22:03.809Z,101736.36
2019-05-13T03:24:32.930Z,101743.55
2019-05-13T03:26:58.140Z,101742.18
2019-05-13T03:29:24.301Z,101749.00
2019-05-13T03:31:55.649Z,101754.66
2019-05-13T03:34:18.747Z,101756.75
2019-05-13T03:36:46.512Z,101756.94
2019-05-13T03:39:16.431Z,101755.84
2019-05-13T03:41:42.552Z,101759.20
2019-05-13T03:44:13.135Z,101757.40
2019-05-13T03:46:38.578Z,101765.20
2019-05-13T03:49:13.774Z,101763.25
2019-05-13T03:51:42.715Z,101773.59
2019-05-13T03:54:08.465Z,101776.62
2019-05-13T03:56:34.807Z,101777.84
2019-05-13T03:59:02.681Z,101774.42
2019-05-13T04:01:32.298Z,101783.28
2019-05-13T04:03:57.703Z,101782.80
2019-05-13T04:06:24.034Z,101781.02
2019-05-13T04:08:53.940Z,101779.40
2019-05-13T04:11:18.687Z,101785.58
2019-05-13T04:13:44.895Z,101789.53
2019-05-13T04:16:12.906Z,101788.61
2019-05-13T04:18:42.342Z,101788.28
2019-05-13T04:21:07.184Z,101789.86
2019-05-13T04:23:33.690Z,101787.37
2019-05-13T04:26:03.084Z,101794.56
2019-05-13T04:28:27.991Z,101798.79
2019-05-13T04:30:54.145Z,101797.27
2019-05-13T04:33:22.928Z,101800.77
2019-05-13T04:35:48.384Z,101802.30
2019-05-13T04:38:14.584Z,101803.58
2019-05-13T04:40:42.382Z,101808.19
2019-05-13T04:43:09.132Z,101810.20
2019-05-13T04:45:35.277Z,101808.74
2019-05-13T04:48:03.270Z,101809.92
2019-05-13T04:50:32.707Z,101807.96
2019-05-13T04:52:57.732Z,101815.75
2019-05-13T04:55:23.924Z,101814.38
2019-05-13T04:57:53.302Z,101819.59
2019-05-13T05:00:42.787Z,101819.82
2019-05-13T05:03:46.110Z,101823.85
2019-05-13T05:06:23.070Z,101829.34
2019-05-13T05:09:15.901Z,101827.55
2019-05-13T05:12:07.428Z,101833.23
2019-05-13T05:15:32.443Z,101833.12
2019-05-13T05:18:22.211Z,101840.08
2019-05-13T05:21:16.674Z,101839.13
2019-05-13T05:24:32.441Z,101835.19
2019-05-13T05:27:33.273Z,101838.39
2019-05-13T05:30:27.748Z,101842.59
2019-05-13T05:33:25.440Z,101849.38
2019-05-13T05:36:26.257Z,101846.77
2019-05-13T05:39:22.650Z,101844.58
2019-05-13T05:41:55.155Z,101849.91
2019-05-13T05:44:25.920Z,101845.30
2019-05-13T05:46:56.096Z,101846.98
2019-05-13T05:49:25.154Z,101851.72
2019-05-13T05:52:04.448Z,101863.55
2019-05-13T05:54:34.874Z,101859.60
2019-05-13T05:57:03.783Z,101866.16
2019-05-13T05:59:32.003Z,101859.31
2019-05-13T06:02:02.025Z,101854.64
2019-05-13T06:04:32.288Z,101847.70
2019-05-13T06:06:57.012Z,101852.05
2019-05-13T06:09:24.462Z,101851.02
2019-05-13T06:11:52.377Z,101856.85
2019-05-13T06:14:18.700Z,101852.53
2019-05-13T06:16:45.174Z,101852.27
2019-05-13T06:19:12.134Z,101856.73
2019-05-13T06:21:38.968Z,101852.91
2019-05-13T06:24:05.107Z,101854.92
2019-05-13T06:26:31.516Z,101848.41
2019-05-13T06:28:58.066Z,101852.53
2019-05-13T06:31:24.316Z,101852.40
2019-05-13T06:33:51.473Z,101857.72
2019-05-13T06:36:17.788Z,101857.73
2019-05-13T06:38:44.631Z,101858.19
2019-05-13T06:41:13.977Z,101858.83
2019-05-13T06:43:38.914Z,101862.75
2019-05-13T06:46:05.103Z,101862.16
2019-05-13T06:48:32.291Z,101866.81
2019-05-13T06:50:58.698Z,101867.47
2019-05-13T06:53:24.948Z,101871.94
2019-05-13T06:55:52.354Z,101863.81
2019-05-13T06:58:18.735Z,101863.98
2019-05-13T07:00:45.018Z,101869.55
2019-05-13T07:03:12.623Z,101868.11
2019-05-13T07:05:42.158Z,101862.25
2019-05-13T07:08:08.622Z,101855.08
2019-05-13T07:10:34.820Z,101857.98
2019-05-13T07:13:02.222Z,101857.88
2019-05-13T07:15:31.362Z,101855.36
2019-05-13T07:17:56.722Z,101858.92
2019-05-13T07:20:22.959Z,101853.78
2019-05-13T07:22:49.088Z,101852.16
2019-05-13T07:25:15.599Z,101851.91
2019-05-13T07:27:42.531Z,101854.07
2019-05-13T07:30:11.284Z,101853.28
2019-05-13T07:32:37.542Z,101845.20
2019-05-13T07:35:05.358Z,101851.81
2019-05-13T07:37:32.793Z,101842.69
2019-05-13T07:39:59.222Z,101845.83
2019-05-13T07:42:25.423Z,101846.18
2019-05-13T07:44:52.344Z,101844.22
2019-05-13T07:47:18.703Z,101837.36
2019-05-13T07:49:44.842Z,101838.31
2019-05-13T07:52:11.862Z,101843.33
2019-05-13T07:54:38.485Z,101845.42
2019-05-13T07:57:04.685Z,101843.45
2019-05-13T07:59:31.837Z,101839.96
2019-05-13T08:01:58.552Z,101840.26
2019-05-13T08:04:26.725Z,101834.59
2019-05-13T08:06:52.917Z,101830.42
2019-05-13T08:09:21.616Z,101830.18
2019-05-13T08:12:04.352Z,101831.72
2019-05-13T08:14:15.708Z,101832.92
2019-05-13T08:16:42.687Z,101834.89
2019-05-13T08:19:09.070Z,101833.14
2019-05-13T08:21:35.304Z,101838.52
2019-05-13T08:24:02.735Z,101832.70
2019-05-13T08:26:29.314Z,101828.05
2019-05-13T08:29:01.766Z,101830.95
2019-05-13T08:31:23.599Z,101827.55
2019-05-13T08:33:51.936Z,101824.85
2019-05-13T08:36:17.926Z,101831.53
2019-05-13T08:38:44.241Z,101834.52
2019-05-13T08:41:18.787Z,101835.39
2019-05-13T08:43:38.552Z,101833.30
2019-05-13T08:46:04.716Z,101830.14
2019-05-13T08:48:32.409Z,101827.91
2019-05-13T08:50:58.730Z,101827.80
2019-05-13T08:53:24.929Z,101827.55
2019-05-13T08:55:51.743Z,101825.25
2019-05-13T08:58:18.091Z,101825.88
2019-05-13T09:00:53.468Z,101823.70
2019-05-13T09:03:21.585Z,101829.92
2019-05-13T09:05:48.184Z,101827.50
2019-05-13T09:08:15.882Z,101823.77
2019-05-13T09:10:42.787Z,101819.25
2019-05-13T09:13:11.953Z,101816.19
2019-05-13T09:15:37.811Z,101819.42
2019-05-13T09:18:04.221Z,101826.06
2019-05-13T09:20:32.328Z,101813.59
2019-05-13T09:22:58.478Z,101810.89
2019-05-13T09:25:24.616Z,101808.97
2019-05-13T09:27:51.411Z,101816.34
2019-05-13T09:30:17.622Z,101811.12
2019-05-13T09:32:43.791Z,101802.98
2019-05-13T09:35:11.984Z,101798.45
2019-05-13T09:37:38.162Z,101809.61
2019-05-13T09:40:04.563Z,101803.63
2019-05-13T09:42:47.611Z,101804.05
2019-05-13T09:44:58.816Z,101800.31
2019-05-13T09:47:28.210Z,101803.25
2019-05-13T09:49:54.546Z,101804.36
2019-05-13T09:52:22.605Z,101807.42
2019-05-13T09:54:49.064Z,101810.22
2019-05-13T09:57:15.237Z,101810.81
2019-05-13T09:59:42.191Z,101794.89
2019-05-13T10:02:09.066Z,101799.12
2019-05-13T10:04:35.311Z,101793.08
2019-05-13T10:07:02.431Z,101790.61
2019-05-13T10:09:29.122Z,101789.79
2019-05-13T10:11:55.266Z,101787.87
2019-05-13T10:14:23.070Z,101789.41
2019-05-13T10:16:51.506Z,101787.79
2019-05-13T10:19:17.883Z,101789.36
2019-05-13T10:21:44.033Z,101780.02
2019-05-13T10:24:12.551Z,101783.68
2019-05-13T10:26:39.088Z,101783.87
2019-05-13T10:29:05.314Z,101781.81
2019-05-13T10:31:31.708Z,101770.92
2019-05-13T10:33:58.016Z,101772.03
2019-05-13T10:36:24.302Z,101782.70
2019-05-13T10:38:52.263Z,101775.78
2019-05-13T10:41:18.731Z,101778.79
2019-05-13T10:43:45.168Z,101781.76
2019-05-13T10:46:12.667Z,101781.16
2019-05-13T10:48:41.252Z,101780.41
2019-05-13T10:51:07.307Z,101781.59
2019-05-13T10:53:33.550Z,101777.45
2019-05-13T10:56:02.479Z,101770.70
2019-05-13T10:58:27.895Z,101772.87
2019-05-13T11:00:55.346Z,101771.38
2019-05-13T11:03:22.936Z,101773.67
2019-05-13T11:05:52.276Z,101777.91
2019-05-13T11:08:17.764Z,101782.47
2019-05-13T11:10:43.981Z,101773.28
2019-05-13T11:13:10.779Z,101770.66
2019-05-13T11:15:41.141Z,101772.95
2019-05-13T11:18:14.266Z,101775.73
2019-05-13T11:20:36.128Z,101771.42
2019-05-13T11:23:02.803Z,101774.91
2019-05-13T11:25:29.084Z,101766.11
2019-05-13T11:27:58.395Z,101761.73
2019-05-13T11:30:23.850Z,101755.41
2019-05-13T11:32:51.671Z,101748.95
2019-05-13T11:35:18.104Z,101759.27
2019-05-13T11:37:44.252Z,101755.99
2019-05-13T11:40:12.129Z,101746.84
2019-05-13T11:42:38.433Z,101756.05
2019-05-13T11:45:07.777Z,101749.77
2019-05-13T11:47:34.327Z,101753.44
2019-05-13T11:50:02.404Z,101757.65
2019-05-13T11:52:28.574Z,101744.74
2019-05-13T11:54:54.745Z,101744.87
2019-05-13T11:57:20.929Z,101747.02
2019-05-13T11:59:47.192Z,101746.43
2019-05-13T12:02:14.018Z,101750.23
2019-05-13T12:04:43.058Z,101742.37
2019-05-13T12:07:08.509Z,101748.30
2019-05-13T12:09:34.682Z,101738.91
2019-05-13T12:12:03.214Z,101736.56
2019-05-13T12:15:18.122Z,101738.23
2019-05-13T12:16:57.035Z,101729.31
2019-05-13T12:19:23.224Z,101730.95
2019-05-13T12:21:49.444Z,101726.41
2019-05-13T12:24:16.517Z,101726.58
2019-05-13T12:26:43.640Z,101722.19
2019-05-13T12:29:18.388Z,101724.38
2019-05-13T12:31:38.085Z,101721.66
2019-05-13T12:34:04.250Z,101716.90
2019-05-13T12:36:32.924Z,101710.31
2019-05-13T12:38:58.806Z,101714.67
2019-05-13T12:41:25.334Z,101712.30
2019-05-13T12:43:53.897Z,101709.44
2019-05-13T12:46:19.551Z,101704.91
2019-05-13T12:48:45.728Z,101697.00
2019-05-13T12:51:13.195Z,101696.33
2019-05-13T12:53:43.243Z,101699.03
2019-05-13T12:56:07.863Z,101697.18
2019-05-13T12:58:34.479Z,101692.50
2019-05-13T13:01:01.520Z,101687.62
2019-05-13T13:03:27.998Z,101686.45
2019-05-13T13:06:21.178Z,101703.39
2019-05-13T13:08:38.403Z,101698.44
2019-05-13T13:10:53.314Z,101698.75
2019-05-13T13:13:22.407Z,101695.85
2019-05-13T13:15:48.744Z,101698.02
2019-05-13T13:18:15.512Z,101697.06
2019-05-13T13:23:12.557Z,101702.48
2019-05-13T13:25:37.879Z,101697.41
2019-05-13T13:28:11.127Z,101695.69
2019-05-13T13:30:35.396Z,101687.61
2019-05-13T13:33:02.867Z,101679.70
2019-05-13T13:35:28.773Z,101684.27
2019-05-13T13:37:55.317Z,101662.69
2019-05-13T13:40:28.951Z,101680.14
2019-05-13T13:42:52.872Z,101668.42
2019-05-13T13:45:17.595Z,101669.42
2019-05-13T13:47:45.574Z,101663.91
2019-05-13T13:50:13.128Z,101654.88
2019-05-13T13:52:44.943Z,101661.61
2019-05-13T13:55:09.123Z,101656.27
2019-05-13T13:57:35.590Z,101661.64
2019-05-13T14:00:34.487Z,101656.57
2019-05-13T14:02:37.048Z,101665.58
2019-05-13T14:05:05.659Z,101660.95
2019-05-13T14:07:09.024Z,101695.82
2019-05-13T14:07:37.918Z,101669.63
2019-05-13T14:10:06.012Z,101662.66
2019-05-13T14:12:28.341Z,101666.09
2019-05-13T14:14:54.539Z,101663.34
2019-05-13T14:17:21.993Z,101657.72
2019-05-13T14:19:48.298Z,101657.53
2019-05-13T14:22:14.450Z,101653.26
2019-05-13T14:24:42.560Z,101660.70
2019-05-13T14:27:08.694Z,101651.05
2019-05-13T14:29:41.029Z,101648.92
2019-05-13T14:32:02.956Z,101647.14
2019-05-13T14:34:31.947Z,101646.28
2019-05-13T14:36:57.502Z,101646.40
2019-05-13T14:39:23.694Z,101641.47
2019-05-13T14:41:51.612Z,101641.28
2019-05-13T14:44:17.967Z,101637.03
2019-05-13T14:46:47.870Z,101632.64
2019-05-13T14:49:12.471Z,101631.89
2019-05-13T14:51:40.886Z,101629.97
2019-05-13T14:54:06.870Z,101628.85
2019-05-13T14:56:33.400Z,101634.27
2019-05-13T14:59:00.252Z,101633.00
2019-05-13T15:01:27.784Z,101628.16
2019-05-13T15:03:53.934Z,101622.39
2019-05-13T15:06:22.103Z,101620.48
2019-05-13T15:08:48.195Z,101621.89
2019-05-13T15:11:14.387Z,101621.83
2019-05-13T15:13:42.540Z,101621.09
2019-05-13T15:16:08.640Z,101619.26
2019-05-13T15:18:35.110Z,101613.50
2019-05-13T15:21:01.829Z,101619.92
2019-05-13T15:23:28.191Z,101614.94
2019-05-13T15:25:54.367Z,101613.27
2019-05-13T15:28:23.293Z,101617.25
2019-05-13T15:30:51.540Z,101612.57
2019-05-13T15:33:17.892Z,101615.68
2019-05-13T15:35:44.106Z,101617.25
2019-05-13T15:38:12.450Z,101617.45
2019-05-13T15:40:38.564Z,101612.13
2019-05-13T15:43:04.708Z,101611.86
2019-05-13T15:45:31.893Z,101607.10
2019-05-13T15:47:58.172Z,101602.69
2019-05-13T15:50:24.371Z,101600.98
2019-05-13T15:52:50.544Z,101596.60
2019-05-13T15:55:16.759Z,101601.25
2019-05-13T15:57:43.017Z,101597.53
2019-05-13T16:00:12.373Z,101595.33
2019-05-13T16:02:38.047Z,101595.48
2019-05-13T16:05:05.084Z,101596.49
2019-05-13T16:07:31.599Z,101592.78
2019-05-13T16:09:57.741Z,101595.45
2019-05-13T16:12:23.964Z,101592.23
2019-05-13T16:14:50.506Z,101595.01
2019-05-13T16:17:16.730Z,101595.23
2019-05-13T16:19:42.905Z,101591.60
2019-05-13T16:22:11.668Z,101594.20
2019-05-13T16:24:37.570Z,101596.75
2019-05-13T16:27:03.780Z,101597.62
2019-05-13T16:29:31.537Z,101598.84
2019-05-13T16:31:57.914Z,101597.22
2019-05-13T16:34:24.063Z,101598.05
2019-05-13T16:36:52.844Z,101598.66
2019-05-13T16:39:18.317Z,101600.09
2019-05-13T16:41:44.586Z,101600.05
2019-05-13T16:44:11.920Z,101600.04
2019-05-13T16:46:38.829Z,101597.00
2019-05-13T16:49:05.029Z,101593.16
2019-05-13T16:51:31.718Z,101591.16
2019-05-13T16:53:57.986Z,101598.28
2019-05-13T16:56:29.716Z,101595.20
2019-05-13T16:58:53.425Z,101595.13
2019-05-13T17:01:21.828Z,101593.95
2019-05-13T17:03:47.724Z,101597.25
2019-05-13T17:06:13.933Z,101591.53
2019-05-13T17:08:42.227Z,101588.91
2019-05-13T17:11:08.435Z,101592.45
2019-05-13T17:13:34.678Z,101587.85
2019-05-13T17:16:03.018Z,101589.23
2019-05-13T17:18:29.216Z,101586.61
2019-05-13T17:20:55.393Z,101588.48
2019-05-13T17:23:22.120Z,101594.37
2019-05-13T17:25:48.773Z,101590.20
2019-05-13T17:28:14.991Z,101590.03
2019-05-13T17:30:41.910Z,101589.36
2019-05-13T17:33:14.733Z,101586.20
2019-05-13T17:35:41.860Z,101589.32
2019-05-13T17:38:08.225Z,101585.61
2019-05-13T17:40:34.436Z,101587.40
2019-05-13T17:43:00.644Z,101590.45
2019-05-13T17:45:26.789Z,101589.52
2019-05-13T17:47:53.007Z,101587.22
2019-05-13T17:50:22.083Z,101585.13
2019-05-13T17:52:51.301Z,101588.04
2019-05-13T17:55:15.898Z,101589.73
2019-05-13T17:57:42.130Z,101590.94
2019-05-13T18:00:09.669Z,101591.17
2019-05-13T18:02:35.939Z,101596.95
2019-05-13T18:05:03.332Z,101597.36
2019-05-13T18:07:31.941Z,101595.47
2019-05-13T18:09:57.625Z,101596.22
2019-05-13T18:12:23.840Z,101598.50
2019-05-13T18:14:51.677Z,101596.02
2019-05-13T18:17:18.049Z,101593.09
2019-05-13T18:19:44.175Z,101593.44
2019-05-13T18:22:11.475Z,101597.16
2019-05-13T18:24:37.827Z,101593.92
2019-05-13T18:27:03.969Z,101598.43
2019-05-13T18:29:31.675Z,101600.11
2019-05-13T18:31:58.169Z,101601.61
2019-05-13T18:34:24.779Z,101602.11
2019-05-13T18:36:51.595Z,101607.27
2019-05-13T18:39:18.268Z,101604.15
2019-05-13T18:41:44.709Z,101603.20
2019-05-13T18:44:12.226Z,101599.42
2019-05-13T18:46:41.492Z,101603.31
2019-05-13T18:49:06.946Z,101601.03
2019-05-13T18:51:33.109Z,101606.58
2019-05-13T18:54:01.265Z,101601.95
2019-05-13T18:56:27.709Z,101605.00
2019-05-13T18:58:54.284Z,101604.99
2019-05-13T19:01:21.534Z,101603.59
2019-05-13T19:03:47.967Z,101610.09
2019-05-13T19:06:14.465Z,101610.55
2019-05-13T19:08:41.340Z,101611.91
2019-05-13T19:11:11.732Z,101613.02
2019-05-13T19:13:37.942Z,101610.08
2019-05-13T19:16:04.129Z,101615.48
2019-05-13T19:18:32.057Z,101613.72
2019-05-13T19:20:58.474Z,101608.54
2019-05-13T19:23:24.621Z,101613.94
2019-05-13T19:25:51.455Z,101609.09
2019-05-13T19:28:17.651Z,101605.84
2019-05-13T19:30:43.843Z,101609.09
2019-05-13T19:33:12.186Z,101610.14
2019-05-13T19:35:38.791Z,101615.03
2019-05-13T19:38:04.954Z,101611.25
2019-05-13T19:40:31.436Z,101611.77
2019-05-13T19:42:57.878Z,101610.19
2019-05-13T19:45:24.079Z,101617.61
2019-05-13T19:47:51.856Z,101620.27
2019-05-13T19:50:24.854Z,101613.85
2019-05-13T19:52:51.907Z,101620.11
2019-05-13T19:55:18.216Z,101615.88
2019-05-13T19:57:44.413Z,101616.34
2019-05-13T20:00:14.071Z,101613.63
2019-05-13T20:02:39.310Z,101611.39
2019-05-13T20:05:05.833Z,101606.25
2019-05-13T20:07:32.242Z,101600.63
2019-05-13T20:09:58.846Z,101602.42
2019-05-13T20:12:25.020Z,101598.94
2019-05-13T20:14:51.779Z,101601.42
2019-05-13T20:17:18.057Z,101598.27
2019-05-13T20:19:50.117Z,101600.18
2019-05-13T20:22:12.882Z,101603.17
2019-05-13T20:24:39.091Z,101604.76
2019-05-13T20:27:05.243Z,101605.67
2019-05-13T20:29:31.389Z,101602.66
2019-05-13T20:31:57.605Z,101599.37
2019-05-13T20:34:23.750Z,101599.84
2019-05-13T20:36:51.621Z,101597.72
2019-05-13T20:39:17.906Z,101596.81
2019-05-13T20:41:44.109Z,101596.37
2019-05-13T20:44:10.261Z,101598.69
2019-05-13T20:46:36.762Z,101601.94
2019-05-13T20:49:03.210Z,101598.62
2019-05-13T20:51:31.299Z,101600.84
2019-05-13T20:53:57.461Z,101603.85
2019-05-13T20:56:23.699Z,101601.44
2019-05-13T20:58:51.569Z,101611.47
2019-05-13T21:01:18.049Z,101617.79
2019-05-13T21:03:44.281Z,101617.02
2019-05-13T21:06:16.158Z,101618.75
2019-05-13T21:08:42.297Z,101629.06
2019-05-13T21:11:15.030Z,101627.28
2019-05-13T21:13:41.383Z,101633.70
2019-05-13T21:16:07.977Z,101636.45
2019-05-13T21:18:42.042Z,101632.80
2019-05-13T21:21:08.543Z,101634.38
2019-05-13T21:23:34.689Z,101634.19
2019-05-13T21:26:01.579Z,101631.23
2019-05-13T21:28:30.886Z,101630.86
2019-05-13T21:30:57.106Z,101631.62
2019-05-13T21:33:23.570Z,101628.91
2019-05-13T21:35:51.133Z,101627.39
2019-05-13T21:38:17.636Z,101626.25
2019-05-13T21:40:43.771Z,101618.61
2019-05-13T21:43:09.981Z,101619.59
2019-05-13T21:45:36.150Z,101612.87
2019-05-13T21:48:02.340Z,101611.12
2019-05-13T21:50:34.273Z,101607.44
2019-05-13T21:52:56.576Z,101604.84
2019-05-13T21:55:22.712Z,101604.84
2019-05-13T21:57:48.919Z,101604.53
2019-05-13T22:00:23.526Z,101603.59
2019-05-13T22:02:48.630Z,101597.38
2019-05-13T22:05:14.964Z,101599.63
2019-05-13T22:07:42.078Z,101598.62
2019-05-13T22:10:09.121Z,101599.05
2019-05-13T22:12:35.321Z,101606.65
2019-05-13T22:15:02.053Z,101604.73
2019-05-13T22:17:28.262Z,101598.66
2019-05-13T22:19:54.419Z,101595.04
2019-05-13T22:22:22.120Z,101594.42
2019-05-13T22:24:48.378Z,101593.28
2019-05-13T22:27:14.858Z,101590.95
2019-05-13T22:29:41.519Z,101589.70
2019-05-13T22:32:07.788Z,101593.25
2019-05-13T22:34:33.925Z,101590.56
2019-05-13T22:37:02.308Z,101592.47
2019-05-13T22:39:31.517Z,101593.34
2019-05-13T22:41:56.223Z,101591.38
2019-05-13T22:44:22.417Z,101593.95
2019-05-13T22:46:48.930Z,101593.98
2019-05-13T22:49:15.130Z,101592.63
2019-05-13T22:51:41.443Z,101593.41
2019-05-13T22:54:07.783Z,101584.19
2019-05-13T22:56:33.922Z,101588.27
2019-05-13T22:59:02.086Z,101583.12
2019-05-13T23:01:28.211Z,101589.00
2019-05-13T23:03:54.421Z,101582.16
2019-05-13T23:06:21.586Z,101578.23
2019-05-13T23:08:48.091Z,101582.44
2019-05-13T23:11:14.222Z,101580.70
2019-05-13T23:13:42.219Z,101579.06
2019-05-13T23:16:08.466Z,101578.48
2019-05-13T23:18:34.656Z,101582.81
2019-05-13T23:21:02.266Z,101581.47
2019-05-13T23:23:28.901Z,101578.14
2019-05-13T23:25:56.912Z,101580.31
2019-05-13T23:28:23.147Z,101581.42
2019-05-13T23:30:51.154Z,101582.47
2019-05-13T23:33:17.559Z,101579.09
2019-05-13T23:35:43.694Z,101586.41
2019-05-13T23:38:09.929Z,101587.55
2019-05-13T23:40:36.134Z,101585.19
2019-05-13T23:43:02.262Z,101588.97
2019-05-13T23:45:28.490Z,101584.35
2019-05-13T23:47:54.672Z,101579.34
2019-05-13T23:50:21.558Z,101573.34
2019-05-13T23:52:47.925Z,101575.50
2019-05-13T23:55:14.522Z,101572.04
2019-05-13T23:57:42.168Z,101579.87
